UAL1821 KIAH-KRDU
Flight info
| Callsign | UAL1821 |
|---|---|
| Flight time | 2h 3m |
| Altitude | 35000 |
| Route | GUMBY3 GUSTI Q22 CATLN MGMRY IRQ PYRES DMSTR2 |
| Aircraft | B738/M-SDE2E3FGHIRWXY/LB1 |
Departure
| Time | 2026-05-08 02:39 |
|---|---|
| Airport | George Bush Intercontinental Airport (KIAH) |
Arrival
| Time | 2026-05-08 04:42 |
|---|---|
| Airport | Raleigh-Durham International Airport (KRDU) |
| Time | Latitude | Longitude | Altitude | Speed | Heading |
|---|---|---|---|---|---|
| 2026-05-08 02:10 | 29.98480 | -95.33166 | 97 ft | 0 kts | 315° |
| 2026-05-08 02:27 | 29.98475 | -95.33160 | 106 ft | 3 kts | 310° |
| 2026-05-08 02:27 | 29.98465 | -95.33143 | 105 ft | 3 kts | 280° |
| 2026-05-08 02:27 | 29.98466 | -95.33123 | 104 ft | 3 kts | 235° |
| 2026-05-08 02:27 | 29.98480 | -95.33109 | 104 ft | 3 kts | 205° |
| 2026-05-08 02:28 | 29.98498 | -95.33102 | 105 ft | 2 kts | 182° |
| 2026-05-08 02:28 | 29.98514 | -95.33102 | 106 ft | 3 kts | 180° |
| 2026-05-08 02:28 | 29.98523 | -95.33102 | 105 ft | 0 kts | 180° |
| 2026-05-08 02:30 | 29.98522 | -95.33102 | 105 ft | 1 kts | 180° |
| 2026-05-08 02:31 | 29.98489 | -95.33104 | 105 ft | 12 kts | 183° |
| 2026-05-08 02:31 | 29.98393 | -95.33108 | 106 ft | 14 kts | 180° |
| 2026-05-08 02:31 | 29.98319 | -95.33161 | 106 ft | 13 kts | 246° |
| 2026-05-08 02:31 | 29.98302 | -95.33264 | 106 ft | 13 kts | 267° |
| 2026-05-08 02:32 | 29.98300 | -95.33366 | 106 ft | 13 kts | 270° |
| 2026-05-08 02:32 | 29.98300 | -95.33466 | 106 ft | 12 kts | 270° |
| 2026-05-08 02:32 | 29.98303 | -95.33564 | 106 ft | 12 kts | 275° |
| 2026-05-08 02:32 | 29.98312 | -95.33667 | 106 ft | 14 kts | 275° |
| 2026-05-08 02:33 | 29.98317 | -95.33787 | 106 ft | 16 kts | 271° |
| 2026-05-08 02:33 | 29.98319 | -95.33922 | 106 ft | 17 kts | 272° |
| 2026-05-08 02:33 | 29.98350 | -95.34050 | 105 ft | 16 kts | 299° |
| 2026-05-08 02:33 | 29.98376 | -95.34173 | 106 ft | 16 kts | 270° |
| 2026-05-08 02:34 | 29.98376 | -95.34297 | 106 ft | 15 kts | 270° |
| 2026-05-08 02:34 | 29.98368 | -95.34416 | 104 ft | 15 kts | 248° |
| 2026-05-08 02:34 | 29.98327 | -95.34539 | 106 ft | 20 kts | 264° |
| 2026-05-08 02:34 | 29.98324 | -95.34713 | 106 ft | 22 kts | 270° |
| 2026-05-08 02:35 | 29.98324 | -95.34888 | 106 ft | 21 kts | 270° |
| 2026-05-08 02:35 | 29.98324 | -95.35056 | 106 ft | 21 kts | 270° |
| 2026-05-08 02:35 | 29.98351 | -95.35171 | 106 ft | 14 kts | 310° |
| 2026-05-08 02:35 | 29.98434 | -95.35234 | 105 ft | 16 kts | 332° |
| 2026-05-08 02:36 | 29.98536 | -95.35295 | 106 ft | 17 kts | 332° |
| 2026-05-08 02:36 | 29.98636 | -95.35356 | 106 ft | 16 kts | 331° |
| 2026-05-08 02:36 | 29.98731 | -95.35416 | 106 ft | 15 kts | 331° |
| 2026-05-08 02:36 | 29.98822 | -95.35472 | 106 ft | 15 kts | 332° |
| 2026-05-08 02:37 | 29.98897 | -95.35534 | 106 ft | 9 kts | 283° |
| 2026-05-08 02:37 | 29.98872 | -95.35595 | 104 ft | 9 kts | 233° |
| 2026-05-08 02:37 | 29.98835 | -95.35657 | 106 ft | 9 kts | 239° |
| 2026-05-08 02:37 | 29.98806 | -95.35718 | 107 ft | 9 kts | 241° |
| 2026-05-08 02:38 | 29.98768 | -95.35765 | 108 ft | 8 kts | 185° |
| 2026-05-08 02:38 | 29.98704 | -95.35734 | 106 ft | 13 kts | 153° |
| 2026-05-08 02:38 | 29.98543 | -95.35636 | 107 ft | 56 kts | 152° |
| 2026-05-08 02:38 | 29.97979 | -95.35289 | 108 ft | 126 kts | 152° |
| 2026-05-08 02:39 | 29.97029 | -95.34704 | 143 ft | 179 kts | 152° |
| 2026-05-08 02:39 | 29.95884 | -95.34034 | 821 ft | 184 kts | 152° |
| 2026-05-08 02:39 | 29.94908 | -95.33149 | 1724 ft | 180 kts | 121° |
| 2026-05-08 02:39 | 29.94513 | -95.31722 | 2188 ft | 199 kts | 96° |
| 2026-05-08 02:40 | 29.94377 | -95.30032 | 2472 ft | 222 kts | 97° |
| 2026-05-08 02:40 | 29.94195 | -95.28221 | 3071 ft | 233 kts | 99° |
| 2026-05-08 02:40 | 29.93937 | -95.26320 | 3676 ft | 243 kts | 102° |
| 2026-05-08 02:40 | 29.93662 | -95.24367 | 3960 ft | 256 kts | 95° |
| 2026-05-08 02:41 | 29.93647 | -95.22269 | 4005 ft | 267 kts | 89° |
| 2026-05-08 02:41 | 29.93694 | -95.20847 | 3999 ft | 268 kts | 89° |
| 2026-05-08 02:41 | 29.93781 | -95.18023 | 3997 ft | 265 kts | 90° |
| 2026-05-08 02:41 | 29.93826 | -95.15906 | 3998 ft | 264 kts | 90° |
| 2026-05-08 02:42 | 29.93862 | -95.13796 | 3994 ft | 263 kts | 90° |
| 2026-05-08 02:42 | 29.93895 | -95.11689 | 4002 ft | 263 kts | 90° |
| 2026-05-08 02:42 | 29.93925 | -95.09557 | 4296 ft | 269 kts | 90° |
| 2026-05-08 02:42 | 29.93945 | -95.08121 | 4774 ft | 272 kts | 90° |
| 2026-05-08 02:43 | 29.93862 | -95.05932 | 5446 ft | 274 kts | 96° |
| 2026-05-08 02:43 | 29.93650 | -95.03752 | 6326 ft | 274 kts | 98° |
| 2026-05-08 02:43 | 29.93331 | -95.00832 | 7286 ft | 281 kts | 98° |
| 2026-05-08 02:43 | 29.93084 | -94.98575 | 7980 ft | 287 kts | 98° |
| 2026-05-08 02:44 | 29.92837 | -94.96276 | 8705 ft | 292 kts | 98° |
| 2026-05-08 02:44 | 29.92591 | -94.93935 | 9420 ft | 297 kts | 98° |
| 2026-05-08 02:44 | 29.92428 | -94.92363 | 9903 ft | 300 kts | 98° |
| 2026-05-08 02:44 | 29.92177 | -94.89934 | 10383 ft | 314 kts | 98° |
| 2026-05-08 02:45 | 29.91910 | -94.87340 | 10605 ft | 335 kts | 98° |
| 2026-05-08 02:45 | 29.91634 | -94.84631 | 11120 ft | 345 kts | 97° |
| 2026-05-08 02:45 | 29.91352 | -94.81865 | 11738 ft | 350 kts | 98° |
| 2026-05-08 02:45 | 29.90973 | -94.78132 | 12559 ft | 358 kts | 98° |
| 2026-05-08 02:46 | 29.90681 | -94.75260 | 13166 ft | 365 kts | 98° |
| 2026-05-08 02:46 | 29.90480 | -94.73287 | 13553 ft | 369 kts | 98° |
| 2026-05-08 02:46 | 29.90177 | -94.70323 | 14105 ft | 375 kts | 98° |
| 2026-05-08 02:46 | 29.89869 | -94.67318 | 14669 ft | 380 kts | 98° |
| 2026-05-08 02:47 | 29.89557 | -94.64274 | 15226 ft | 385 kts | 99° |
| 2026-05-08 02:47 | 29.89244 | -94.61229 | 15765 ft | 391 kts | 99° |
| 2026-05-08 02:47 | 29.88921 | -94.58102 | 16321 ft | 396 kts | 99° |
| 2026-05-08 02:47 | 29.88594 | -94.54934 | 16864 ft | 401 kts | 99° |
| 2026-05-08 02:48 | 29.88261 | -94.51721 | 17400 ft | 407 kts | 99° |
| 2026-05-08 02:48 | 29.87923 | -94.48465 | 17946 ft | 412 kts | 100° |
| 2026-05-08 02:48 | 29.87580 | -94.45170 | 18451 ft | 417 kts | 100° |
| 2026-05-08 02:48 | 29.87233 | -94.41839 | 18940 ft | 421 kts | 100° |
| 2026-05-08 02:49 | 29.86884 | -94.38482 | 19466 ft | 423 kts | 100° |
| 2026-05-08 02:49 | 29.86536 | -94.35157 | 19986 ft | 426 kts | 100° |
| 2026-05-08 02:49 | 29.86187 | -94.31756 | 20505 ft | 429 kts | 98° |
| 2026-05-08 02:49 | 29.85988 | -94.28304 | 20998 ft | 434 kts | 95° |
| 2026-05-08 02:50 | 29.85900 | -94.24811 | 21496 ft | 438 kts | 94° |
| 2026-05-08 02:50 | 29.85839 | -94.21291 | 21972 ft | 441 kts | 94° |
| 2026-05-08 02:50 | 29.85767 | -94.17750 | 22459 ft | 444 kts | 94° |
| 2026-05-08 02:50 | 29.85675 | -94.14185 | 22935 ft | 447 kts | 94° |
| 2026-05-08 02:51 | 29.85567 | -94.10596 | 23399 ft | 450 kts | 95° |
| 2026-05-08 02:51 | 29.85451 | -94.06981 | 23807 ft | 453 kts | 95° |
| 2026-05-08 02:51 | 29.85390 | -94.03341 | 24160 ft | 458 kts | 89° |
| 2026-05-08 02:51 | 29.85641 | -93.99716 | 24504 ft | 462 kts | 85° |
| 2026-05-08 02:52 | 29.86050 | -93.96028 | 24867 ft | 466 kts | 83° |
| 2026-05-08 02:52 | 29.86513 | -93.92325 | 25221 ft | 469 kts | 83° |
| 2026-05-08 02:52 | 29.86981 | -93.88596 | 25571 ft | 472 kts | 83° |
| 2026-05-08 02:52 | 29.87433 | -93.84836 | 25915 ft | 475 kts | 83° |
| 2026-05-08 02:53 | 29.87865 | -93.81048 | 26289 ft | 478 kts | 84° |
| 2026-05-08 02:53 | 29.88283 | -93.77233 | 26619 ft | 481 kts | 84° |
| 2026-05-08 02:53 | 29.88691 | -93.73391 | 26947 ft | 484 kts | 84° |
| 2026-05-08 02:53 | 29.89091 | -93.69576 | 27266 ft | 487 kts | 84° |
| 2026-05-08 02:54 | 29.89496 | -93.65688 | 27580 ft | 491 kts | 84° |
| 2026-05-08 02:54 | 29.89902 | -93.61772 | 27893 ft | 494 kts | 84° |
| 2026-05-08 02:54 | 29.90311 | -93.57833 | 28206 ft | 497 kts | 84° |
| 2026-05-08 02:54 | 29.90723 | -93.53870 | 28507 ft | 499 kts | 84° |
| 2026-05-08 02:55 | 29.91136 | -93.49884 | 28809 ft | 502 kts | 84° |
| 2026-05-08 02:55 | 29.91966 | -93.41845 | 29388 ft | 508 kts | 84° |
| 2026-05-08 02:55 | 29.92383 | -93.37790 | 29670 ft | 511 kts | 84° |
| 2026-05-08 02:56 | 29.92795 | -93.33769 | 29943 ft | 514 kts | 84° |
| 2026-05-08 02:56 | 29.93214 | -93.29670 | 30191 ft | 516 kts | 84° |
| 2026-05-08 02:56 | 29.93633 | -93.25554 | 30424 ft | 518 kts | 84° |
| 2026-05-08 02:56 | 29.94053 | -93.21421 | 30674 ft | 520 kts | 84° |
| 2026-05-08 02:57 | 29.94473 | -93.17271 | 30921 ft | 522 kts | 84° |
| 2026-05-08 02:57 | 29.94892 | -93.13113 | 31189 ft | 523 kts | 84° |
| 2026-05-08 02:57 | 29.95311 | -93.08951 | 31529 ft | 522 kts | 84° |
| 2026-05-08 02:57 | 29.95726 | -93.04804 | 31890 ft | 520 kts | 84° |
| 2026-05-08 02:58 | 29.96140 | -93.00661 | 32212 ft | 520 kts | 84° |
| 2026-05-08 02:58 | 29.96553 | -92.96520 | 32503 ft | 520 kts | 85° |
| 2026-05-08 02:58 | 29.96964 | -92.92385 | 32802 ft | 520 kts | 85° |
| 2026-05-08 02:58 | 29.97461 | -92.88255 | 33128 ft | 519 kts | 81° |
| 2026-05-08 02:59 | 29.98168 | -92.84176 | 33437 ft | 519 kts | 78° |
| 2026-05-08 02:59 | 29.98979 | -92.80178 | 33722 ft | 519 kts | 76° |
| 2026-05-08 02:59 | 29.99841 | -92.76134 | 34001 ft | 519 kts | 76° |
| 2026-05-08 02:59 | 30.00700 | -92.72094 | 34228 ft | 519 kts | 76° |
| 2026-05-08 03:00 | 30.01540 | -92.68041 | 34429 ft | 520 kts | 77° |
| 2026-05-08 03:00 | 30.02357 | -92.63977 | 34647 ft | 520 kts | 77° |
| 2026-05-08 03:00 | 30.03157 | -92.59901 | 34880 ft | 520 kts | 77° |
| 2026-05-08 03:00 | 30.03944 | -92.55830 | 35040 ft | 521 kts | 78° |
| 2026-05-08 03:01 | 30.04728 | -92.51735 | 35016 ft | 524 kts | 78° |
| 2026-05-08 03:01 | 30.06281 | -92.43600 | 35018 ft | 520 kts | 78° |
| 2026-05-08 03:02 | 30.07832 | -92.35468 | 35021 ft | 517 kts | 78° |
| 2026-05-08 03:02 | 30.09372 | -92.27386 | 35029 ft | 514 kts | 78° |
| 2026-05-08 03:03 | 30.10904 | -92.19326 | 35034 ft | 513 kts | 78° |
| 2026-05-08 03:03 | 30.12428 | -92.11272 | 35052 ft | 514 kts | 78° |
| 2026-05-08 03:04 | 30.13951 | -92.03200 | 35060 ft | 515 kts | 78° |
| 2026-05-08 03:04 | 30.15472 | -91.95104 | 35061 ft | 517 kts | 78° |
| 2026-05-08 03:05 | 30.16995 | -91.86968 | 35060 ft | 519 kts | 78° |
| 2026-05-08 03:05 | 30.18520 | -91.78796 | 35043 ft | 521 kts | 78° |
| 2026-05-08 03:06 | 30.20035 | -91.70645 | 35036 ft | 523 kts | 78° |
| 2026-05-08 03:06 | 30.21559 | -91.62418 | 35028 ft | 524 kts | 78° |
| 2026-05-08 03:07 | 30.23080 | -91.54175 | 35021 ft | 524 kts | 78° |
| 2026-05-08 03:07 | 30.24595 | -91.45934 | 35020 ft | 524 kts | 78° |
| 2026-05-08 03:08 | 30.26103 | -91.37701 | 35026 ft | 522 kts | 78° |
| 2026-05-08 03:08 | 30.27592 | -91.29545 | 35031 ft | 521 kts | 78° |
| 2026-05-08 03:09 | 30.29080 | -91.21359 | 35041 ft | 519 kts | 78° |
| 2026-05-08 03:09 | 30.30559 | -91.13195 | 35040 ft | 518 kts | 78° |
| 2026-05-08 03:10 | 30.32029 | -91.05049 | 35048 ft | 516 kts | 78° |
| 2026-05-08 03:10 | 30.33491 | -90.96913 | 35044 ft | 516 kts | 78° |
| 2026-05-08 03:11 | 30.34947 | -90.88786 | 35046 ft | 516 kts | 78° |
| 2026-05-08 03:11 | 30.36389 | -90.80706 | 35043 ft | 516 kts | 78° |
| 2026-05-08 03:12 | 30.37835 | -90.72570 | 35048 ft | 517 kts | 78° |
| 2026-05-08 03:12 | 30.39281 | -90.64407 | 35053 ft | 518 kts | 78° |
| 2026-05-08 03:13 | 30.40723 | -90.56231 | 35065 ft | 519 kts | 78° |
| 2026-05-08 03:13 | 30.42164 | -90.48032 | 35070 ft | 520 kts | 78° |
| 2026-05-08 03:14 | 30.43594 | -90.39863 | 35079 ft | 521 kts | 78° |
| 2026-05-08 03:14 | 30.45032 | -90.31621 | 35074 ft | 522 kts | 78° |
| 2026-05-08 03:15 | 30.46466 | -90.23365 | 35057 ft | 523 kts | 78° |
| 2026-05-08 03:15 | 30.48110 | -90.15159 | 35046 ft | 523 kts | 73° |
| 2026-05-08 03:16 | 30.50183 | -90.07142 | 35033 ft | 522 kts | 71° |
| 2026-05-08 03:16 | 30.52328 | -89.99093 | 35030 ft | 523 kts | 72° |
| 2026-05-08 03:17 | 30.54419 | -89.91019 | 35035 ft | 522 kts | 72° |
| 2026-05-08 03:17 | 30.56467 | -89.82939 | 35039 ft | 522 kts | 72° |
| 2026-05-08 03:18 | 30.58500 | -89.74857 | 35040 ft | 522 kts | 72° |
| 2026-05-08 03:18 | 30.60531 | -89.66777 | 35040 ft | 521 kts | 72° |
| 2026-05-08 03:19 | 30.62544 | -89.58757 | 35035 ft | 521 kts | 72° |
| 2026-05-08 03:19 | 30.64564 | -89.50687 | 35039 ft | 520 kts | 72° |
| 2026-05-08 03:20 | 30.66579 | -89.42616 | 35036 ft | 520 kts | 72° |
| 2026-05-08 03:20 | 30.68587 | -89.34546 | 35030 ft | 520 kts | 72° |
| 2026-05-08 03:21 | 30.70576 | -89.26529 | 35031 ft | 520 kts | 72° |
| 2026-05-08 03:21 | 30.72576 | -89.18448 | 35033 ft | 520 kts | 72° |
| 2026-05-08 03:22 | 30.74570 | -89.10363 | 35034 ft | 521 kts | 72° |
| 2026-05-08 03:22 | 30.76563 | -89.02263 | 35030 ft | 521 kts | 72° |
| 2026-05-08 03:23 | 30.78552 | -88.94151 | 35035 ft | 522 kts | 72° |
| 2026-05-08 03:23 | 30.80525 | -88.86084 | 35037 ft | 522 kts | 72° |
| 2026-05-08 03:24 | 30.82508 | -88.77949 | 35038 ft | 523 kts | 72° |
| 2026-05-08 03:24 | 30.84490 | -88.69797 | 35033 ft | 524 kts | 73° |
| 2026-05-08 03:25 | 30.86468 | -88.61634 | 35036 ft | 524 kts | 73° |
| 2026-05-08 03:25 | 30.88428 | -88.53518 | 35041 ft | 525 kts | 73° |
| 2026-05-08 03:26 | 30.90401 | -88.45329 | 35046 ft | 525 kts | 73° |
| 2026-05-08 03:26 | 30.92481 | -88.37186 | 35040 ft | 524 kts | 66° |
| 2026-05-08 03:27 | 30.95777 | -88.29709 | 35053 ft | 518 kts | 55° |
| 2026-05-08 03:27 | 30.99430 | -88.22475 | 35047 ft | 518 kts | 55° |
| 2026-05-08 03:28 | 31.03024 | -88.15259 | 35035 ft | 519 kts | 56° |
| 2026-05-08 03:28 | 31.06592 | -88.07948 | 35035 ft | 519 kts | 56° |
| 2026-05-08 03:29 | 31.10144 | -88.00619 | 35034 ft | 519 kts | 56° |
| 2026-05-08 03:29 | 31.13697 | -87.93279 | 35035 ft | 519 kts | 56° |
| 2026-05-08 03:30 | 31.19000 | -87.82312 | 35034 ft | 520 kts | 56° |
| 2026-05-08 03:31 | 31.26103 | -87.67574 | 35029 ft | 521 kts | 56° |
| 2026-05-08 03:32 | 31.31566 | -87.56683 | 35023 ft | 515 kts | 46° |
| 2026-05-08 03:32 | 31.36157 | -87.50340 | 35036 ft | 510 kts | 41° |
| 2026-05-08 03:33 | 31.40863 | -87.44124 | 35037 ft | 511 kts | 41° |
| 2026-05-08 03:33 | 31.45544 | -87.37853 | 35043 ft | 512 kts | 42° |
| 2026-05-08 03:34 | 31.50161 | -87.31575 | 35053 ft | 512 kts | 42° |
| 2026-05-08 03:34 | 31.54799 | -87.25236 | 35051 ft | 513 kts | 42° |
| 2026-05-08 03:35 | 31.59440 | -87.18883 | 35047 ft | 513 kts | 42° |
| 2026-05-08 03:35 | 31.64084 | -87.12520 | 35036 ft | 513 kts | 42° |
| 2026-05-08 03:36 | 31.68729 | -87.06149 | 35017 ft | 514 kts | 42° |
| 2026-05-08 03:36 | 31.73373 | -86.99768 | 34987 ft | 514 kts | 42° |
| 2026-05-08 03:37 | 31.77986 | -86.93417 | 34978 ft | 514 kts | 42° |
| 2026-05-08 03:37 | 31.82628 | -86.87017 | 34994 ft | 515 kts | 42° |
| 2026-05-08 03:38 | 31.87270 | -86.80605 | 35010 ft | 515 kts | 42° |
| 2026-05-08 03:38 | 31.91909 | -86.74187 | 35028 ft | 515 kts | 42° |
| 2026-05-08 03:39 | 31.96579 | -86.67714 | 35023 ft | 515 kts | 42° |
| 2026-05-08 03:39 | 32.01219 | -86.61273 | 35020 ft | 516 kts | 42° |
| 2026-05-08 03:40 | 32.05859 | -86.54821 | 35008 ft | 516 kts | 42° |
| 2026-05-08 03:40 | 32.10497 | -86.48358 | 35024 ft | 516 kts | 42° |
| 2026-05-08 03:41 | 32.15105 | -86.41927 | 35046 ft | 517 kts | 42° |
| 2026-05-08 03:41 | 32.19741 | -86.35446 | 35057 ft | 517 kts | 42° |
| 2026-05-08 03:42 | 32.23781 | -86.28332 | 35047 ft | 531 kts | 60° |
| 2026-05-08 03:42 | 32.26795 | -86.20353 | 35054 ft | 532 kts | 63° |
| 2026-05-08 03:43 | 32.29711 | -86.12318 | 35021 ft | 532 kts | 62° |
| 2026-05-08 03:43 | 32.32655 | -86.04354 | 35028 ft | 532 kts | 62° |
| 2026-05-08 03:44 | 32.35657 | -85.96359 | 35024 ft | 532 kts | 62° |
| 2026-05-08 03:44 | 32.38665 | -85.88370 | 35026 ft | 532 kts | 62° |
| 2026-05-08 03:45 | 32.41669 | -85.80366 | 35031 ft | 532 kts | 62° |
| 2026-05-08 03:45 | 32.44665 | -85.72351 | 35034 ft | 532 kts | 62° |
| 2026-05-08 03:46 | 32.47636 | -85.64383 | 35050 ft | 533 kts | 62° |
| 2026-05-08 03:46 | 32.50623 | -85.56352 | 35065 ft | 533 kts | 62° |
| 2026-05-08 03:47 | 32.53604 | -85.48316 | 35079 ft | 533 kts | 62° |
| 2026-05-08 03:47 | 32.56583 | -85.40270 | 35077 ft | 533 kts | 62° |
| 2026-05-08 03:48 | 32.59560 | -85.32210 | 35071 ft | 534 kts | 62° |
| 2026-05-08 03:48 | 32.62511 | -85.24200 | 35059 ft | 534 kts | 62° |
| 2026-05-08 03:49 | 32.65475 | -85.16134 | 35051 ft | 534 kts | 62° |
| 2026-05-08 03:49 | 32.68440 | -85.08049 | 35033 ft | 534 kts | 62° |
| 2026-05-08 03:50 | 32.71395 | -84.99969 | 35050 ft | 534 kts | 62° |
| 2026-05-08 03:50 | 32.74347 | -84.91881 | 35070 ft | 534 kts | 62° |
| 2026-05-08 03:51 | 32.77293 | -84.83788 | 35067 ft | 534 kts | 62° |
| 2026-05-08 03:51 | 32.80215 | -84.75740 | 35064 ft | 534 kts | 62° |
| 2026-05-08 03:52 | 32.83155 | -84.67625 | 35055 ft | 535 kts | 62° |
| 2026-05-08 03:52 | 32.86092 | -84.59497 | 35038 ft | 535 kts | 62° |
| 2026-05-08 03:53 | 32.89023 | -84.51367 | 35024 ft | 535 kts | 62° |
| 2026-05-08 03:53 | 32.91950 | -84.43226 | 35021 ft | 535 kts | 62° |
| 2026-05-08 03:54 | 32.94851 | -84.35141 | 35011 ft | 535 kts | 62° |
| 2026-05-08 03:54 | 32.96574 | -84.30327 | 35017 ft | 535 kts | 62° |
| 2026-05-08 03:55 | 32.99485 | -84.22178 | 35019 ft | 534 kts | 62° |
| 2026-05-08 03:55 | 33.02389 | -84.14032 | 35008 ft | 534 kts | 62° |
| 2026-05-08 03:56 | 33.05269 | -84.05934 | 35010 ft | 534 kts | 62° |
| 2026-05-08 03:56 | 33.08159 | -83.97783 | 35003 ft | 534 kts | 62° |
| 2026-05-08 03:57 | 33.11046 | -83.89623 | 35010 ft | 534 kts | 62° |
| 2026-05-08 03:57 | 33.13926 | -83.81463 | 35010 ft | 534 kts | 62° |
| 2026-05-08 03:58 | 33.16802 | -83.73294 | 35011 ft | 534 kts | 62° |
| 2026-05-08 03:58 | 33.19651 | -83.65180 | 35015 ft | 534 kts | 62° |
| 2026-05-08 03:59 | 33.22516 | -83.57000 | 35015 ft | 534 kts | 62° |
| 2026-05-08 03:59 | 33.25376 | -83.48814 | 35016 ft | 534 kts | 62° |
| 2026-05-08 04:00 | 33.28230 | -83.40623 | 35018 ft | 534 kts | 63° |
| 2026-05-08 04:00 | 33.31079 | -83.32426 | 35018 ft | 534 kts | 63° |
| 2026-05-08 04:01 | 33.33903 | -83.24283 | 35031 ft | 534 kts | 63° |
| 2026-05-08 04:01 | 33.36748 | -83.16058 | 35022 ft | 536 kts | 63° |
| 2026-05-08 04:02 | 33.39594 | -83.07808 | 35030 ft | 537 kts | 63° |
| 2026-05-08 04:02 | 33.42439 | -82.99539 | 35031 ft | 538 kts | 63° |
| 2026-05-08 04:03 | 33.45260 | -82.91316 | 35020 ft | 538 kts | 63° |
| 2026-05-08 04:03 | 33.49510 | -82.78892 | 35032 ft | 537 kts | 63° |
| 2026-05-08 04:04 | 33.52328 | -82.70627 | 35046 ft | 535 kts | 63° |
| 2026-05-08 04:04 | 33.55137 | -82.62365 | 35061 ft | 534 kts | 63° |
| 2026-05-08 04:05 | 33.57932 | -82.54123 | 35062 ft | 533 kts | 63° |
| 2026-05-08 04:05 | 33.60697 | -82.45952 | 35063 ft | 532 kts | 63° |
| 2026-05-08 04:06 | 33.63472 | -82.37728 | 35045 ft | 531 kts | 63° |
| 2026-05-08 04:06 | 33.66237 | -82.29512 | 35030 ft | 531 kts | 63° |
| 2026-05-08 04:07 | 33.68995 | -82.21296 | 34999 ft | 531 kts | 63° |
| 2026-05-08 04:07 | 33.71611 | -82.13059 | 34998 ft | 533 kts | 68° |
| 2026-05-08 04:08 | 33.73777 | -82.04528 | 35003 ft | 535 kts | 70° |
| 2026-05-08 04:08 | 33.75856 | -81.95942 | 35002 ft | 535 kts | 70° |
| 2026-05-08 04:09 | 33.77983 | -81.87374 | 35005 ft | 535 kts | 70° |
| 2026-05-08 04:09 | 33.80142 | -81.78800 | 35005 ft | 536 kts | 70° |
| 2026-05-08 04:10 | 33.82292 | -81.70230 | 35004 ft | 536 kts | 70° |
| 2026-05-08 04:10 | 33.84434 | -81.61650 | 34999 ft | 535 kts | 70° |
| 2026-05-08 04:11 | 33.86726 | -81.53161 | 34971 ft | 528 kts | 58° |
| 2026-05-08 04:11 | 33.90359 | -81.45677 | 34982 ft | 520 kts | 51° |
| 2026-05-08 04:12 | 33.94220 | -81.38324 | 34983 ft | 519 kts | 51° |
| 2026-05-08 04:12 | 33.98022 | -81.30922 | 34989 ft | 519 kts | 52° |
| 2026-05-08 04:13 | 34.01745 | -81.23489 | 34987 ft | 515 kts | 52° |
| 2026-05-08 04:13 | 34.05373 | -81.16173 | 34993 ft | 510 kts | 52° |
| 2026-05-08 04:14 | 34.09013 | -81.08835 | 34716 ft | 510 kts | 52° |
| 2026-05-08 04:14 | 34.10827 | -81.05176 | 34391 ft | 505 kts | 52° |
| 2026-05-08 04:14 | 34.12623 | -81.01547 | 34016 ft | 503 kts | 52° |
| 2026-05-08 04:15 | 34.14412 | -80.97931 | 33606 ft | 500 kts | 52° |
| 2026-05-08 04:15 | 34.16188 | -80.94339 | 33188 ft | 497 kts | 52° |
| 2026-05-08 04:15 | 34.17955 | -80.90761 | 32799 ft | 494 kts | 52° |
| 2026-05-08 04:15 | 34.19686 | -80.87254 | 32422 ft | 491 kts | 52° |
| 2026-05-08 04:16 | 34.21429 | -80.83719 | 32048 ft | 489 kts | 52° |
| 2026-05-08 04:16 | 34.23161 | -80.80202 | 31681 ft | 486 kts | 52° |
| 2026-05-08 04:16 | 34.24885 | -80.76699 | 31309 ft | 483 kts | 52° |
| 2026-05-08 04:16 | 34.26598 | -80.73215 | 30953 ft | 481 kts | 52° |
| 2026-05-08 04:17 | 34.28302 | -80.69746 | 30590 ft | 479 kts | 52° |
| 2026-05-08 04:17 | 34.29996 | -80.66294 | 30233 ft | 477 kts | 52° |
| 2026-05-08 04:17 | 34.31683 | -80.62852 | 29797 ft | 475 kts | 52° |
| 2026-05-08 04:17 | 34.33363 | -80.59423 | 29397 ft | 472 kts | 52° |
| 2026-05-08 04:18 | 34.35007 | -80.56061 | 28993 ft | 469 kts | 52° |
| 2026-05-08 04:18 | 34.36661 | -80.52674 | 28606 ft | 466 kts | 52° |
| 2026-05-08 04:18 | 34.38303 | -80.49310 | 28216 ft | 463 kts | 53° |
| 2026-05-08 04:18 | 34.39933 | -80.45969 | 27841 ft | 459 kts | 53° |
| 2026-05-08 04:19 | 34.41552 | -80.42646 | 27460 ft | 457 kts | 53° |
| 2026-05-08 04:19 | 34.43161 | -80.39342 | 27087 ft | 454 kts | 53° |
| 2026-05-08 04:19 | 34.44758 | -80.36059 | 26708 ft | 451 kts | 53° |
| 2026-05-08 04:19 | 34.46345 | -80.32794 | 26338 ft | 449 kts | 53° |
| 2026-05-08 04:20 | 34.47926 | -80.29540 | 25984 ft | 446 kts | 53° |
| 2026-05-08 04:20 | 34.49475 | -80.26348 | 25618 ft | 444 kts | 53° |
| 2026-05-08 04:20 | 34.51058 | -80.23081 | 25235 ft | 443 kts | 53° |
| 2026-05-08 04:20 | 34.52592 | -80.19913 | 24875 ft | 441 kts | 53° |
| 2026-05-08 04:21 | 34.54143 | -80.16710 | 24498 ft | 440 kts | 53° |
| 2026-05-08 04:21 | 34.55687 | -80.13514 | 24126 ft | 438 kts | 53° |
| 2026-05-08 04:21 | 34.57225 | -80.10329 | 23746 ft | 437 kts | 54° |
| 2026-05-08 04:21 | 34.58760 | -80.07148 | 23353 ft | 436 kts | 54° |
| 2026-05-08 04:22 | 34.60284 | -80.03985 | 22954 ft | 433 kts | 54° |
| 2026-05-08 04:22 | 34.61799 | -80.00838 | 22579 ft | 430 kts | 54° |
| 2026-05-08 04:22 | 34.63301 | -79.97715 | 22215 ft | 427 kts | 54° |
| 2026-05-08 04:22 | 34.64771 | -79.94657 | 21862 ft | 423 kts | 54° |
| 2026-05-08 04:23 | 34.66249 | -79.91580 | 21503 ft | 420 kts | 54° |
| 2026-05-08 04:23 | 34.67724 | -79.88534 | 21157 ft | 415 kts | 51° |
| 2026-05-08 04:23 | 34.69559 | -79.85944 | 20780 ft | 396 kts | 31° |
| 2026-05-08 04:23 | 34.71724 | -79.83956 | 20505 ft | 387 kts | 27° |
| 2026-05-08 04:24 | 34.73905 | -79.82066 | 20174 ft | 383 kts | 26° |
| 2026-05-08 04:24 | 34.76074 | -79.80209 | 19848 ft | 380 kts | 26° |
| 2026-05-08 04:24 | 34.78218 | -79.78362 | 19535 ft | 377 kts | 26° |
| 2026-05-08 04:24 | 34.80346 | -79.76514 | 19222 ft | 374 kts | 27° |
| 2026-05-08 04:25 | 34.82451 | -79.74671 | 18914 ft | 371 kts | 27° |
| 2026-05-08 04:25 | 34.84509 | -79.72860 | 18593 ft | 369 kts | 27° |
| 2026-05-08 04:25 | 34.86582 | -79.71030 | 18291 ft | 367 kts | 27° |
| 2026-05-08 04:25 | 34.88642 | -79.69208 | 17919 ft | 364 kts | 27° |
| 2026-05-08 04:26 | 34.90680 | -79.67402 | 17601 ft | 361 kts | 27° |
| 2026-05-08 04:26 | 34.92700 | -79.65611 | 17287 ft | 357 kts | 27° |
| 2026-05-08 04:26 | 34.94702 | -79.63835 | 16969 ft | 354 kts | 27° |
| 2026-05-08 04:26 | 34.96685 | -79.62075 | 16635 ft | 351 kts | 27° |
| 2026-05-08 04:27 | 34.98652 | -79.60329 | 16335 ft | 348 kts | 28° |
| 2026-05-08 04:27 | 35.00598 | -79.58600 | 16045 ft | 345 kts | 28° |
| 2026-05-08 04:27 | 35.02504 | -79.56906 | 15756 ft | 342 kts | 28° |
| 2026-05-08 04:27 | 35.04421 | -79.55202 | 15467 ft | 339 kts | 28° |
| 2026-05-08 04:28 | 35.06319 | -79.53513 | 15190 ft | 337 kts | 28° |
| 2026-05-08 04:28 | 35.08207 | -79.51832 | 14903 ft | 334 kts | 29° |
| 2026-05-08 04:28 | 35.10079 | -79.50167 | 14622 ft | 331 kts | 27° |
| 2026-05-08 04:28 | 35.12091 | -79.48963 | 14328 ft | 314 kts | 6° |
| 2026-05-08 04:29 | 35.14196 | -79.48551 | 14103 ft | 303 kts | 358° |
| 2026-05-08 04:29 | 35.16288 | -79.48283 | 13884 ft | 301 kts | 358° |
| 2026-05-08 04:29 | 35.18367 | -79.48034 | 13601 ft | 300 kts | 358° |
| 2026-05-08 04:29 | 35.20425 | -79.47783 | 13336 ft | 302 kts | 358° |
| 2026-05-08 04:30 | 35.22522 | -79.47518 | 13076 ft | 304 kts | 358° |
| 2026-05-08 04:30 | 35.24635 | -79.47244 | 12819 ft | 307 kts | 358° |
| 2026-05-08 04:30 | 35.26756 | -79.46962 | 12545 ft | 307 kts | 359° |
| 2026-05-08 04:30 | 35.28878 | -79.46677 | 12286 ft | 306 kts | 359° |
| 2026-05-08 04:31 | 35.30994 | -79.46392 | 12024 ft | 306 kts | 359° |
| 2026-05-08 04:31 | 35.33109 | -79.46107 | 11761 ft | 305 kts | 359° |
| 2026-05-08 04:31 | 35.35215 | -79.45822 | 11504 ft | 304 kts | 359° |
| 2026-05-08 04:31 | 35.37290 | -79.45542 | 11243 ft | 303 kts | 359° |
| 2026-05-08 04:32 | 35.39381 | -79.45228 | 10986 ft | 305 kts | 4° |
| 2026-05-08 04:32 | 35.41438 | -79.44452 | 10719 ft | 311 kts | 14° |
| 2026-05-08 04:32 | 35.43451 | -79.43464 | 10427 ft | 312 kts | 15° |
| 2026-05-08 04:32 | 35.45463 | -79.42477 | 10151 ft | 310 kts | 15° |
| 2026-05-08 04:33 | 35.47468 | -79.41519 | 9858 ft | 309 kts | 16° |
| 2026-05-08 04:33 | 35.49301 | -79.40111 | 9535 ft | 317 kts | 41° |
| 2026-05-08 04:33 | 35.50660 | -79.37980 | 9279 ft | 317 kts | 52° |
| 2026-05-08 04:33 | 35.51903 | -79.35755 | 8976 ft | 315 kts | 53° |
| 2026-05-08 04:34 | 35.52714 | -79.34280 | 8779 ft | 314 kts | 53° |
| 2026-05-08 04:34 | 35.53929 | -79.32070 | 8495 ft | 312 kts | 53° |
| 2026-05-08 04:34 | 35.55538 | -79.29166 | 8130 ft | 309 kts | 53° |
| 2026-05-08 04:34 | 35.56356 | -79.27698 | 7960 ft | 307 kts | 53° |
| 2026-05-08 04:35 | 35.57562 | -79.25538 | 7688 ft | 306 kts | 53° |
| 2026-05-08 04:35 | 35.58763 | -79.23394 | 7425 ft | 304 kts | 53° |
| 2026-05-08 04:35 | 35.59957 | -79.21261 | 7160 ft | 302 kts | 53° |
| 2026-05-08 04:35 | 35.61148 | -79.19137 | 6886 ft | 301 kts | 53° |
| 2026-05-08 04:36 | 35.62331 | -79.17025 | 6627 ft | 299 kts | 53° |
| 2026-05-08 04:36 | 35.63508 | -79.14921 | 6357 ft | 298 kts | 53° |
| 2026-05-08 04:36 | 35.64687 | -79.12852 | 6049 ft | 293 kts | 51° |
| 2026-05-08 04:36 | 35.65873 | -79.10940 | 5995 ft | 276 kts | 50° |
| 2026-05-08 04:37 | 35.67061 | -79.09069 | 5517 ft | 280 kts | 50° |
| 2026-05-08 04:37 | 35.68260 | -79.07181 | 5068 ft | 281 kts | 50° |
| 2026-05-08 04:37 | 35.69462 | -79.05279 | 4603 ft | 282 kts | 51° |
| 2026-05-08 04:37 | 35.70660 | -79.03370 | 4127 ft | 282 kts | 51° |
| 2026-05-08 04:38 | 35.71857 | -79.01456 | 3651 ft | 282 kts | 51° |
| 2026-05-08 04:38 | 35.73053 | -78.99541 | 3199 ft | 281 kts | 51° |
| 2026-05-08 04:38 | 35.74223 | -78.97662 | 3018 ft | 269 kts | 51° |
| 2026-05-08 04:38 | 35.75326 | -78.95889 | 2971 ft | 253 kts | 51° |
| 2026-05-08 04:39 | 35.76347 | -78.94247 | 2957 ft | 238 kts | 51° |
| 2026-05-08 04:39 | 35.77399 | -78.92693 | 2982 ft | 236 kts | 45° |
| 2026-05-08 04:39 | 35.78523 | -78.91260 | 2863 ft | 227 kts | 43° |
| 2026-05-08 04:39 | 35.79612 | -78.89918 | 2597 ft | 216 kts | 43° |
| 2026-05-08 04:40 | 35.80648 | -78.88636 | 2319 ft | 206 kts | 43° |
| 2026-05-08 04:40 | 35.81638 | -78.87407 | 2054 ft | 197 kts | 44° |
| 2026-05-08 04:40 | 35.82579 | -78.86238 | 1796 ft | 187 kts | 44° |
| 2026-05-08 04:40 | 35.83455 | -78.85152 | 1523 ft | 173 kts | 44° |
| 2026-05-08 04:41 | 35.84269 | -78.84132 | 1291 ft | 165 kts | 45° |
| 2026-05-08 04:41 | 35.85053 | -78.83137 | 1054 ft | 159 kts | 45° |
| 2026-05-08 04:41 | 35.85823 | -78.82199 | 844 ft | 154 kts | 44° |
| 2026-05-08 04:41 | 35.86576 | -78.81277 | 644 ft | 151 kts | 45° |
| 2026-05-08 04:42 | 35.87305 | -78.80369 | 447 ft | 147 kts | 45° |
| 2026-05-08 04:42 | 35.87989 | -78.79531 | 393 ft | 126 kts | 46° |
| 2026-05-08 04:42 | 35.88501 | -78.78897 | 390 ft | 83 kts | 45° |
| 2026-05-08 04:42 | 35.88747 | -78.78574 | 392 ft | 27 kts | 62° |
| 2026-05-08 04:43 | 35.88736 | -78.78440 | 392 ft | 12 kts | 134° |
| 2026-05-08 04:43 | 35.88669 | -78.78396 | 391 ft | 8 kts | 189° |
| 2026-05-08 04:43 | 35.88617 | -78.78448 | 391 ft | 14 kts | 225° |
| 2026-05-08 04:43 | 35.88535 | -78.78553 | 391 ft | 19 kts | 225° |
| 2026-05-08 04:44 | 35.88444 | -78.78665 | 391 ft | 18 kts | 224° |
| 2026-05-08 04:44 | 35.88357 | -78.78771 | 391 ft | 18 kts | 225° |
| 2026-05-08 04:44 | 35.88274 | -78.78876 | 391 ft | 17 kts | 225° |
| 2026-05-08 04:44 | 35.88215 | -78.78986 | 390 ft | 16 kts | 275° |
| 2026-05-08 04:45 | 35.88173 | -78.79107 | 391 ft | 18 kts | 227° |
| 2026-05-08 04:45 | 35.88069 | -78.79233 | 391 ft | 23 kts | 225° |
| 2026-05-08 04:45 | 35.87959 | -78.79369 | 391 ft | 22 kts | 225° |
| 2026-05-08 04:45 | 35.87853 | -78.79501 | 391 ft | 21 kts | 225° |
| 2026-05-08 04:46 | 35.87747 | -78.79627 | 391 ft | 21 kts | 215° |
| 2026-05-08 04:46 | 35.87643 | -78.79672 | 391 ft | 13 kts | 180° |
| 2026-05-08 04:46 | 35.87591 | -78.79639 | 391 ft | 4 kts | 141° |
| 2026-05-08 04:46 | 35.87583 | -78.79629 | 391 ft | 0 kts | 135° |